Tsuruoka, Japan
Current Conditions -  °F | °C
As of 1:00 PM on Saturday 25 Oct 2014 (Local Time) from RJSY Reporting Station
Clear Clear  
Wind Chill: 68°   Ceiling: Unl
Heat Index: 68°   Visibility: 6mi
Dew Point: 48°   Wind: 6mph
Humidity: 49%   Direction: 270°W
Pressure: 30.12"   Gusts: NA
Location:  38.73°N, 139.82°E
Report Text: RJSY 250400Z 27005KT 240V310 CAVOK 20/09 Q1020
Loading
Personal Weather Stations






























Interactive Weather Map
Tropical Storm Tracking
New forecast layout! Learn more

10-Day Weather Forecast

Advertisements
Track Severe Weather on mobile